Time;durP1;ratioP1;P1;durP2;ratioP2;P2;SDS_P1;SDS_P2;PMS_P1;PMS_P2;Temp;Humidity;BMP_temperature;BMP_pressure;BME280_temperature;BME280_humidity;BME280_pressure;Samples;Min_cycle;Max_cycle;Signal;HPM_P1;HPM_P2
2024/02/06 00:00:54;;;;;;;7.57;4.13;;;9.30;99.90;;;;;;5039229;28;20227;-51
2024/02/06 00:03:20;;;;;;;7.43;3.30;;;9.30;99.90;;;;;;5038499;28;20986;-56
2024/02/06 00:05:47;;;;;;;5.13;3.80;;;9.30;99.90;;;;;;5027994;28;20517;-53
2024/02/06 00:08:15;;;;;;;6.20;3.87;;;9.40;99.90;;;;;;5051647;28;20204;-55
2024/02/06 00:10:43;;;;;;;9.33;3.23;;;9.40;99.90;;;;;;5015717;28;21579;-52
2024/02/06 00:13:09;;;;;;;6.53;3.80;;;9.40;99.90;;;;;;5047398;28;20223;-56
2024/02/06 00:15:36;;;;;;;9.20;4.10;;;9.40;99.90;;;;;;5038433;28;21007;-51
2024/02/06 00:18:03;;;;;;;8.07;3.80;;;9.40;99.90;;;;;;5042518;28;20191;-52
2024/02/06 00:20:30;;;;;;;5.60;3.63;;;9.40;99.90;;;;;;5023910;28;20300;-55
2024/02/06 00:22:57;;;;;;;10.20;3.90;;;9.40;99.90;;;;;;5025193;28;20952;-53
2024/02/06 00:25:25;;;;;;;12.17;4.53;;;9.40;99.90;;;;;;5034937;28;20203;-55
2024/02/06 00:27:52;;;;;;;7.40;4.10;;;9.40;99.90;;;;;;5013117;28;20199;-52
2024/02/06 00:30:19;;;;;;;9.87;4.00;;;9.40;99.90;;;;;;5030788;28;20188;-51
2024/02/06 00:32:46;;;;;;;7.70;4.43;;;9.50;99.90;;;;;;5027554;28;20225;-57
2024/02/06 00:35:13;;;;;;;7.47;3.93;;;9.50;99.90;;;;;;5032233;28;20749;-55
2024/02/06 00:37:40;;;;;;;8.17;3.70;;;9.50;99.90;;;;;;5023061;28;20303;-57
2024/02/06 00:40:08;;;;;;;8.67;3.77;;;9.50;99.90;;;;;;5036602;28;20218;-53
2024/02/06 00:42:36;;;;;;;8.77;3.93;;;9.50;99.90;;;;;;5013167;28;20214;-57
2024/02/06 00:45:03;;;;;;;13.23;4.00;;;9.50;99.90;;;;;;5034016;28;20274;-53
2024/02/06 00:47:32;;;;;;;7.60;3.93;;;9.50;99.90;;;;;;5034711;28;20192;-55
2024/02/06 00:49:59;;;;;;;5.63;3.53;;;9.50;99.90;;;;;;5032596;28;20222;-53
2024/02/06 00:52:26;;;;;;;10.33;3.80;;;9.50;99.90;;;;;;5028618;28;20215;-52
2024/02/06 00:54:53;;;;;;;5.87;3.33;;;9.50;99.90;;;;;;5033681;28;20923;-52
2024/02/06 00:57:19;;;;;;;9.30;3.70;;;9.50;99.90;;;;;;5039908;28;20648;-51
2024/02/06 00:59:48;;;;;;;8.07;4.07;;;9.50;99.90;;;;;;5010172;28;20281;-56
2024/02/06 01:02:15;;;;;;;8.90;3.80;;;9.50;99.90;;;;;;5033938;28;20211;-56
2024/02/06 01:04:41;;;;;;;5.80;4.03;;;9.60;99.90;;;;;;5033328;28;20195;-51
2024/02/06 01:07:08;;;;;;;7.03;3.67;;;9.60;99.90;;;;;;5042282;28;20249;-54
2024/02/06 01:09:35;;;;;;;6.60;3.37;;;9.50;99.90;;;;;;5028027;28;20268;-55
2024/02/06 01:12:02;;;;;;;10.47;3.83;;;9.60;99.90;;;;;;5038209;28;20336;-54
2024/02/06 01:14:29;;;;;;;12.33;4.27;;;9.60;99.90;;;;;;5012723;28;20246;-57
2024/02/06 01:16:57;;;;;;;4.97;3.43;;;9.60;99.90;;;;;;5040779;28;20203;-53
2024/02/06 01:19:24;;;;;;;5.67;3.43;;;9.60;99.90;;;;;;5043275;28;20225;-57
2024/02/06 01:21:51;;;;;;;13.17;4.00;;;9.60;99.90;;;;;;5038598;28;20703;-55
2024/02/06 01:24:17;;;;;;;9.47;3.97;;;9.60;99.90;;;;;;5038082;28;20226;-57
2024/02/06 01:26:44;;;;;;;14.93;4.03;;;9.60;99.90;;;;;;5042055;28;20199;-53
2024/02/06 01:29:12;;;;;;;12.27;4.33;;;9.60;99.90;;;;;;5026340;28;20347;-58
2024/02/06 01:31:39;;;;;;;10.53;3.97;;;9.60;99.90;;;;;;5018819;28;20196;-51
2024/02/06 01:34:07;;;;;;;14.53;4.20;;;9.60;99.90;;;;;;5013295;28;20704;-57
2024/02/06 01:36:34;;;;;;;9.17;3.83;;;9.60;99.90;;;;;;5027792;28;20280;-53
2024/02/06 01:39:01;;;;;;;6.93;4.20;;;9.60;99.90;;;;;;5032142;28;20206;-53
2024/02/06 01:41:28;;;;;;;9.73;4.03;;;9.60;99.90;;;;;;5027226;28;20223;-53
2024/02/06 01:43:55;;;;;;;9.93;4.07;;;9.60;99.90;;;;;;5036196;28;20238;-53
2024/02/06 01:46:22;;;;;;;8.70;3.50;;;9.60;99.90;;;;;;5000453;28;20227;-53
2024/02/06 01:48:50;;;;;;;14.50;3.73;;;9.60;99.90;;;;;;5033192;28;20254;-53
2024/02/06 01:51:19;;;;;;;9.87;3.90;;;9.60;99.90;;;;;;5029865;28;20207;-56
2024/02/06 01:53:46;;;;;;;7.53;3.70;;;9.60;99.90;;;;;;5028160;28;20216;-55
2024/02/06 01:56:13;;;;;;;9.33;3.93;;;9.60;99.90;;;;;;5026559;28;20261;-57
2024/02/06 01:58:40;;;;;;;7.50;4.27;;;9.60;99.90;;;;;;5035482;28;20203;-49
2024/02/06 02:01:08;;;;;;;8.27;4.47;;;9.60;99.90;;;;;;5017275;28;20223;-54
2024/02/06 02:03:36;;;;;;;9.47;3.60;;;9.60;99.90;;;;;;5021119;28;20224;-52
2024/02/06 02:06:04;;;;;;;8.23;3.93;;;9.60;99.90;;;;;;5028167;28;20192;-55
2024/02/06 02:08:33;;;;;;;12.00;4.00;;;9.60;99.90;;;;;;5017386;28;20207;-51
2024/02/06 02:11:00;;;;;;;9.67;3.60;;;9.60;99.90;;;;;;5026664;28;20226;-52
2024/02/06 02:13:27;;;;;;;10.20;3.93;;;9.60;99.90;;;;;;5025789;28;20214;-49
2024/02/06 02:15:54;;;;;;;7.40;3.30;;;9.60;99.90;;;;;;5030309;28;20235;-52
2024/02/06 02:18:21;;;;;;;8.73;3.87;;;9.60;99.90;;;;;;5014157;28;20260;-50
2024/02/06 02:20:48;;;;;;;11.00;3.87;;;9.60;99.90;;;;;;5035530;28;20930;-50
2024/02/06 02:23:16;;;;;;;7.03;3.33;;;9.60;99.90;;;;;;5032130;28;20270;-56
2024/02/06 02:25:43;;;;;;;12.93;3.97;;;9.60;99.90;;;;;;5031612;28;20221;-55
2024/02/06 02:28:10;;;;;;;6.73;3.23;;;9.60;99.90;;;;;;5030205;28;20210;-56
2024/02/06 02:30:37;;;;;;;6.97;3.63;;;9.60;99.90;;;;;;5007716;28;20495;-50
2024/02/06 02:33:05;;;;;;;6.97;4.00;;;9.60;99.90;;;;;;5031887;28;20231;-55
2024/02/06 02:35:32;;;;;;;7.57;3.63;;;9.60;99.90;;;;;;5006637;28;20504;-53
2024/02/06 02:37:59;;;;;;;8.00;3.70;;;9.60;99.90;;;;;;5029625;28;20204;-55
2024/02/06 02:40:27;;;;;;;6.37;3.67;;;9.60;99.90;;;;;;5022922;28;20219;-52
2024/02/06 02:42:55;;;;;;;7.57;4.30;;;9.60;99.90;;;;;;5024497;28;20353;-53
2024/02/06 02:45:22;;;;;;;7.60;3.43;;;9.60;99.90;;;;;;5033321;28;20210;-55
2024/02/06 02:47:49;;;;;;;8.10;4.00;;;9.60;99.90;;;;;;5036782;28;20193;-53
2024/02/06 02:50:16;;;;;;;10.83;4.23;;;9.60;99.90;;;;;;5005948;28;20219;-53
2024/02/06 02:52:43;;;;;;;5.70;3.50;;;9.60;99.90;;;;;;5038835;28;20211;-51
2024/02/06 02:55:10;;;;;;;13.00;4.10;;;9.60;99.90;;;;;;5031023;28;20714;-51
2024/02/06 02:57:38;;;;;;;9.43;3.70;;;9.60;99.90;;;;;;5024384;28;20199;-52
2024/02/06 03:00:06;;;;;;;9.17;3.80;;;9.60;99.90;;;;;;5040372;28;20191;-54
2024/02/06 03:02:33;;;;;;;10.60;4.00;;;9.60;99.90;;;;;;5021080;28;20629;-54
2024/02/06 03:05:00;;;;;;;8.97;3.57;;;9.60;99.90;;;;;;5021336;28;20241;-50
2024/02/06 03:07:27;;;;;;;13.13;4.67;;;9.60;99.90;;;;;;5039481;28;20204;-56
2024/02/06 03:09:54;;;;;;;10.33;3.63;;;9.60;99.90;;;;;;5037116;28;20261;-54
2024/02/06 03:12:21;;;;;;;8.03;4.77;;;9.60;99.90;;;;;;5036014;28;20723;-56
2024/02/06 03:14:49;;;;;;;7.37;3.90;;;9.60;99.90;;;;;;5034073;28;20966;-50
2024/02/06 03:17:16;;;;;;;10.33;4.33;;;9.60;99.90;;;;;;5028307;28;20634;-55
2024/02/06 03:19:43;;;;;;;13.30;3.77;;;9.60;99.90;;;;;;5015824;28;20248;-50
2024/02/06 03:22:10;;;;;;;11.90;4.17;;;9.60;99.90;;;;;;5038973;28;20276;-53
2024/02/06 03:24:36;;;;;;;8.00;3.50;;;9.60;99.90;;;;;;5033123;28;20984;-50
2024/02/06 03:27:05;;;;;;;6.17;2.90;;;9.70;99.90;;;;;;5036898;28;20223;-54
2024/02/06 03:29:32;;;;;;;10.17;3.63;;;9.60;99.90;;;;;;5026038;28;20227;-56
2024/02/06 03:32:00;;;;;;;13.57;4.80;;;9.60;99.90;;;;;;5031744;28;20192;-52
2024/02/06 03:34:27;;;;;;;11.50;4.20;;;9.70;99.90;;;;;;5022936;28;20249;-54
2024/02/06 03:36:53;;;;;;;11.80;4.03;;;9.70;99.90;;;;;;5043510;28;20428;-52
2024/02/06 03:39:20;;;;;;;9.27;3.63;;;9.70;99.90;;;;;;5042694;28;20195;-56
2024/02/06 03:41:47;;;;;;;11.73;3.33;;;9.70;99.90;;;;;;5036458;28;20219;-54
2024/02/06 03:44:15;;;;;;;6.47;3.60;;;9.70;99.90;;;;;;5043066;28;20246;-51
2024/02/06 03:46:42;;;;;;;10.07;3.53;;;9.70;99.90;;;;;;5020327;28;20207;-51
2024/02/06 03:49:10;;;;;;;7.83;3.10;;;9.70;99.90;;;;;;5038910;28;20257;-53
2024/02/06 03:51:37;;;;;;;8.83;3.83;;;9.70;99.90;;;;;;5008004;28;20285;-52
2024/02/06 03:54:03;;;;;;;8.23;3.70;;;9.70;99.90;;;;;;5036967;28;20223;-54
2024/02/06 03:56:30;;;;;;;8.97;3.60;;;9.70;99.90;;;;;;5038145;28;20839;-56
2024/02/06 03:58:57;;;;;;;8.33;3.80;;;9.70;99.90;;;;;;5042708;28;20195;-51
2024/02/06 04:01:24;;;;;;;7.83;3.57;;;9.70;99.90;;;;;;5033469;28;20223;-57
2024/02/06 04:03:51;;;;;;;10.23;3.53;;;9.70;99.90;;;;;;5035405;28;20212;-53
2024/02/06 04:06:20;;;;;;;10.40;4.13;;;9.70;99.90;;;;;;5012797;28;20227;-56
2024/02/06 04:08:47;;;;;;;5.97;3.37;;;9.80;99.90;;;;;;5039079;28;20284;-54
2024/02/06 04:11:13;;;;;;;6.37;2.77;;;9.80;99.90;;;;;;5045455;28;20257;-53
2024/02/06 04:13:40;;;;;;;9.87;3.77;;;9.80;99.90;;;;;;5036679;28;20219;-51
2024/02/06 04:16:07;;;;;;;6.60;3.30;;;9.80;99.90;;;;;;5040731;28;20203;-55
2024/02/06 04:18:34;;;;;;;11.67;3.70;;;9.80;99.90;;;;;;5026573;28;20200;-54
2024/02/06 04:21:01;;;;;;;13.03;3.47;;;9.80;99.90;;;;;;5042022;28;20242;-55
2024/02/06 04:23:29;;;;;;;7.60;3.20;;;9.80;99.90;;;;;;5012239;28;20273;-56
2024/02/06 04:25:56;;;;;;;14.17;4.27;;;9.80;99.90;;;;;;5038068;28;20206;-51
2024/02/06 04:28:23;;;;;;;5.70;3.13;;;9.80;99.90;;;;;;5038179;28;20195;-57
2024/02/06 04:30:50;;;;;;;7.07;3.17;;;9.80;99.90;;;;;;5035264;28;20250;-51
2024/02/06 04:33:17;;;;;;;9.43;3.90;;;9.80;99.90;;;;;;5027330;28;20348;-56
2024/02/06 04:35:44;;;;;;;9.20;3.40;;;9.80;99.90;;;;;;5032885;28;20184;-53
2024/02/06 04:38:11;;;;;;;8.70;3.20;;;9.80;99.90;;;;;;5007255;28;20235;-56
2024/02/06 04:40:39;;;;;;;8.03;3.60;;;9.80;99.90;;;;;;5037611;28;20207;-54
2024/02/06 04:43:06;;;;;;;9.60;3.40;;;9.80;99.90;;;;;;5035162;28;20600;-56
2024/02/06 04:45:33;;;;;;;6.73;3.17;;;9.80;99.90;;;;;;5036426;28;20208;-53
2024/02/06 04:48:00;;;;;;;7.97;3.30;;;9.80;99.90;;;;;;5005375;28;20278;-50
2024/02/06 04:50:26;;;;;;;7.80;3.10;;;9.80;99.90;;;;;;5029309;28;20196;-53
2024/02/06 04:52:55;;;;;;;8.00;3.30;;;9.80;99.90;;;;;;5013160;28;20226;-55
2024/02/06 04:55:21;;;;;;;6.33;2.87;;;9.80;99.90;;;;;;5039402;28;20841;-53
2024/02/06 04:57:50;;;;;;;9.43;3.23;;;9.80;99.90;;;;;;5036973;28;20223;-52
2024/02/06 05:00:17;;;;;;;8.47;3.57;;;9.80;99.90;;;;;;5032237;28;20203;-56
2024/02/06 05:02:45;;;;;;;6.23;3.40;;;9.80;99.90;;;;;;5028796;28;20277;-51
2024/02/06 05:05:12;;;;;;;7.80;3.60;;;9.90;99.90;;;;;;5030400;28;20583;-56
2024/02/06 05:07:39;;;;;;;14.57;3.70;;;9.80;99.90;;;;;;5034409;28;20215;-55
2024/02/06 05:10:10;;;;;;;9.17;3.80;;;9.80;99.90;;;;;;5025176;28;20277;-56
2024/02/06 05:12:37;;;;;;;9.20;4.03;;;9.80;99.90;;;;;;5035870;28;20265;-56
2024/02/06 05:15:06;;;;;;;13.23;3.40;;;9.90;99.90;;;;;;5038731;28;20281;-56
2024/02/06 05:17:33;;;;;;;8.47;3.40;;;9.90;99.90;;;;;;5012732;28;20292;-54
2024/02/06 05:20:00;;;;;;;10.70;3.00;;;9.90;99.90;;;;;;5024688;28;20203;-55
2024/02/06 05:22:27;;;;;;;13.53;3.93;;;9.90;99.90;;;;;;5031771;28;20219;-54
2024/02/06 05:24:53;;;;;;;9.53;4.00;;;9.90;99.90;;;;;;5012612;28;20215;-55
2024/02/06 05:27:20;;;;;;;12.60;3.70;;;9.90;99.90;;;;;;5030194;28;20889;-56
2024/02/06 05:29:47;;;;;;;10.73;3.37;;;9.90;99.90;;;;;;5034202;28;20203;-53
2024/02/06 05:32:16;;;;;;;10.93;3.40;;;9.90;99.90;;;;;;5030109;28;20215;-53
2024/02/06 05:34:43;;;;;;;7.60;3.00;;;9.90;99.90;;;;;;5032177;28;20528;-55
2024/02/06 05:37:09;;;;;;;14.10;3.80;;;9.90;99.90;;;;;;5023435;28;20200;-55
2024/02/06 05:39:36;;;;;;;9.17;3.80;;;9.90;99.90;;;;;;5039001;28;20237;-53
2024/02/06 05:42:03;;;;;;;5.50;2.77;;;9.90;99.90;;;;;;5014564;28;20270;-55
2024/02/06 05:44:30;;;;;;;9.90;3.57;;;9.90;99.90;;;;;;5040771;28;20962;-52
2024/02/06 05:46:57;;;;;;;14.23;3.90;;;9.90;99.90;;;;;;5036201;28;20203;-55
2024/02/06 05:49:25;;;;;;;10.57;3.77;;;9.80;99.90;;;;;;5032662;28;20268;-53
2024/02/06 05:51:52;;;;;;;9.20;3.10;;;9.90;99.90;;;;;;5030119;28;20245;-53
2024/02/06 05:54:19;;;;;;;11.37;3.47;;;9.90;99.90;;;;;;5023617;28;20224;-51
2024/02/06 05:56:46;;;;;;;12.00;3.30;;;9.80;99.90;;;;;;5009525;28;20545;-54
2024/02/06 05:59:13;;;;;;;11.07;3.83;;;9.90;99.90;;;;;;5031887;28;20199;-54
2024/02/06 06:01:39;;;;;;;8.10;3.10;;;9.90;99.90;;;;;;5032888;28;20242;-50
2024/02/06 06:04:06;;;;;;;8.50;3.23;;;9.90;99.90;;;;;;5036780;28;20219;-56
2024/02/06 06:06:34;;;;;;;10.77;3.43;;;9.90;99.90;;;;;;5027715;28;20266;-50
2024/02/06 06:09:02;;;;;;;12.10;4.03;;;9.90;99.90;;;;;;5025809;28;20355;-57
2024/02/06 06:11:29;;;;;;;15.10;3.37;;;9.90;99.90;;;;;;5014018;28;20211;-54
2024/02/06 06:13:56;;;;;;;9.37;3.40;;;9.90;99.90;;;;;;5039246;28;20219;-55
2024/02/06 06:16:23;;;;;;;5.30;3.10;;;9.90;99.90;;;;;;5030736;28;20221;-50
2024/02/06 06:18:50;;;;;;;8.03;3.43;;;9.90;99.90;;;;;;5041098;28;20672;-51
2024/02/06 06:21:16;;;;;;;8.80;3.07;;;9.90;99.90;;;;;;5025535;28;21004;-54
2024/02/06 06:23:44;;;;;;;8.43;3.07;;;9.90;99.90;;;;;;5021854;28;20309;-53
2024/02/06 06:26:12;;;;;;;9.93;3.90;;;9.90;99.90;;;;;;5006344;28;20195;-57
2024/02/06 06:28:39;;;;;;;11.77;4.07;;;9.90;99.90;;;;;;5037935;28;20245;-55
2024/02/06 06:31:07;;;;;;;7.47;3.13;;;9.90;99.90;;;;;;5037839;28;20191;-57
2024/02/06 06:33:34;;;;;;;10.33;3.27;;;9.90;99.90;;;;;;5033803;28;20691;-51
2024/02/06 06:36:00;;;;;;;12.00;3.63;;;10.00;99.90;;;;;;5035982;28;20204;-57
2024/02/06 06:38:27;;;;;;;6.10;3.23;;;10.00;99.90;;;;;;5028142;28;20262;-54
2024/02/06 06:40:55;;;;;;;9.50;3.60;;;10.00;99.90;;;;;;5037768;28;20694;-55
2024/02/06 06:43:22;;;;;;;10.53;3.40;;;10.00;99.90;;;;;;5004566;28;20905;-56
2024/02/06 06:45:49;;;;;;;9.23;3.73;;;10.00;99.90;;;;;;5043071;28;20265;-55
2024/02/06 06:48:16;;;;;;;8.50;3.60;;;10.00;99.90;;;;;;5041786;28;20207;-56
2024/02/06 06:50:44;;;;;;;12.13;3.10;;;10.00;99.90;;;;;;5041290;28;20286;-53
2024/02/06 06:53:10;;;;;;;11.13;3.23;;;10.00;99.90;;;;;;5035939;28;20277;-55
2024/02/06 06:55:37;;;;;;;10.03;3.10;;;10.00;99.90;;;;;;5033923;28;20258;-54
2024/02/06 06:58:05;;;;;;;9.80;3.43;;;10.00;99.90;;;;;;5007440;28;20227;-52
2024/02/06 07:00:34;;;;;;;9.53;3.00;;;10.00;99.90;;;;;;5036629;28;20275;-50
2024/02/06 07:03:00;;;;;;;9.40;3.50;;;10.00;99.90;;;;;;5033711;28;20227;-51
2024/02/06 07:05:28;;;;;;;5.83;3.50;;;10.00;99.90;;;;;;5024802;28;20250;-53
2024/02/06 07:07:54;;;;;;;6.87;2.20;;;10.00;99.90;;;;;;5042882;28;20206;-50
2024/02/06 07:10:21;;;;;;;16.73;3.63;;;9.90;99.90;;;;;;5034282;28;20203;-55
2024/02/06 07:12:48;;;;;;;9.37;3.23;;;9.90;99.90;;;;;;5029401;28;20229;-49
2024/02/06 07:15:16;;;;;;;7.23;2.93;;;9.90;99.90;;;;;;5013060;28;20199;-54
2024/02/06 07:17:44;;;;;;;16.70;4.00;;;9.90;99.90;;;;;;5039588;28;20311;-50
2024/02/06 07:20:11;;;;;;;9.90;3.20;;;9.90;99.90;;;;;;5029332;28;20196;-53
2024/02/06 07:22:38;;;;;;;10.00;3.37;;;9.80;99.90;;;;;;5038850;28;20270;-54
2024/02/06 07:25:06;;;;;;;10.40;3.20;;;9.80;99.90;;;;;;5032558;28;20920;-52
2024/02/06 07:27:33;;;;;;;11.13;3.57;;;9.80;99.90;;;;;;5043595;28;20242;-52
2024/02/06 07:30:01;;;;;;;8.80;3.43;;;9.70;99.90;;;;;;5000661;28;20211;-52
2024/02/06 07:32:29;;;;;;;14.23;3.60;;;9.70;99.90;;;;;;5020128;28;20252;-51
2024/02/06 07:34:56;;;;;;;5.83;2.67;;;9.70;99.90;;;;;;5009190;28;20521;-48
2024/02/06 07:37:24;;;;;;;6.97;2.97;;;9.60;99.90;;;;;;5037472;28;20668;-52
2024/02/06 07:39:51;;;;;;;7.13;3.10;;;9.60;99.90;;;;;;5024969;28;20414;-55
2024/02/06 07:42:17;;;;;;;9.43;3.27;;;9.60;99.90;;;;;;5039035;28;20228;-49
2024/02/06 07:44:44;;;;;;;9.97;3.60;;;9.60;99.90;;;;;;5006280;28;20943;-52
2024/02/06 07:47:11;;;;;;;8.77;4.00;;;9.60;99.90;;;;;;5034656;28;20260;-53
2024/02/06 07:49:39;;;;;;;9.43;2.80;;;9.60;99.90;;;;;;5034086;28;20203;-54
2024/02/06 07:52:07;;;;;;;12.80;4.03;;;9.50;99.90;;;;;;5032416;28;20215;-51
2024/02/06 07:54:34;;;;;;;10.57;2.90;;;9.50;99.90;;;;;;5024059;28;20226;-51
2024/02/06 07:57:01;;;;;;;7.07;2.97;;;9.50;99.90;;;;;;5042348;28;20229;-55
2024/02/06 07:59:27;;;;;;;6.30;2.80;;;9.50;99.90;;;;;;5040320;28;20504;-50
2024/02/06 08:01:54;;;;;;;8.47;3.90;;;9.50;99.90;;;;;;5003190;28;20784;-53
2024/02/06 08:04:21;;;;;;;10.33;3.27;;;9.50;99.90;;;;;;5028675;28;20744;-51
2024/02/06 08:06:50;;;;;;;8.03;2.87;;;9.50;99.90;;;;;;5031604;28;20200;-52
2024/02/06 08:09:18;;;;;;;7.80;3.37;;;9.50;99.90;;;;;;5039405;28;20286;-54
2024/02/06 08:11:45;;;;;;;10.23;2.77;;;9.50;99.90;;;;;;5029605;28;20216;-55
2024/02/06 08:14:13;;;;;;;7.77;3.27;;;9.50;99.90;;;;;;5022143;28;20377;-53
2024/02/06 08:16:40;;;;;;;4.27;2.57;;;9.50;99.90;;;;;;5002161;28;20584;-51
2024/02/06 08:19:08;;;;;;;6.87;2.70;;;9.50;99.90;;;;;;5037799;28;20203;-52
2024/02/06 08:21:35;;;;;;;9.40;2.93;;;9.50;99.90;;;;;;5028417;28;20218;-55
2024/02/06 08:24:04;;;;;;;6.67;3.00;;;9.50;99.90;;;;;;5034492;28;20231;-52
2024/02/06 08:26:31;;;;;;;5.03;2.57;;;9.50;99.90;;;;;;5031337;28;20192;-54
2024/02/06 08:28:58;;;;;;;6.03;3.10;;;9.50;99.90;;;;;;5037659;28;20195;-52
2024/02/06 08:31:25;;;;;;;4.90;2.37;;;9.50;99.90;;;;;;5031491;28;20203;-51
2024/02/06 08:33:52;;;;;;;7.70;2.10;;;9.50;99.90;;;;;;5015185;28;20391;-49
2024/02/06 08:36:18;;;;;;;6.90;2.87;;;9.50;99.90;;;;;;5038209;28;20575;-50
2024/02/06 08:38:45;;;;;;;7.37;2.60;;;9.50;99.90;;;;;;5034264;28;20256;-50
2024/02/06 08:41:14;;;;;;;7.13;2.50;;;9.50;99.90;;;;;;5033632;28;20196;-53
2024/02/06 08:43:41;;;;;;;4.90;2.30;;;9.60;99.90;;;;;;5033564;28;20712;-50
2024/02/06 08:46:08;;;;;;;9.97;2.80;;;9.60;99.90;;;;;;5040548;28;20196;-48
2024/02/06 08:48:34;;;;;;;7.27;2.80;;;9.60;99.90;;;;;;5010236;28;20607;-53
2024/02/06 08:51:01;;;;;;;6.13;2.60;;;9.60;99.90;;;;;;5037750;28;20195;-49
2024/02/06 08:53:29;;;;;;;5.43;2.43;;;9.70;99.90;;;;;;5031169;28;20295;-52
2024/02/06 08:55:59;;;;;;;4.40;2.40;;;9.70;99.90;;;;;;5027490;28;20369;-49
2024/02/06 08:58:27;;;;;;;7.93;2.53;;;9.70;99.90;;;;;;5018486;28;20286;-52
2024/02/06 09:00:54;;;;;;;4.27;2.20;;;9.70;99.90;;;;;;5032689;28;20935;-52
2024/02/06 09:03:21;;;;;;;6.90;2.57;;;9.80;99.90;;;;;;5014816;28;20301;-50
2024/02/06 09:05:47;;;;;;;5.13;2.10;;;9.80;99.90;;;;;;5025537;28;20894;-54
2024/02/06 09:08:14;;;;;;;5.53;2.17;;;9.80;99.90;;;;;;5030422;28;20269;-51
2024/02/06 09:10:41;;;;;;;6.30;2.50;;;9.80;99.90;;;;;;5037959;28;20198;-50
2024/02/06 09:13:08;;;;;;;9.90;2.80;;;9.80;99.90;;;;;;5024868;28;20277;-49
2024/02/06 09:15:36;;;;;;;6.47;2.43;;;9.80;99.90;;;;;;5031429;28;20223;-50
2024/02/06 09:18:03;;;;;;;8.43;2.33;;;9.80;99.90;;;;;;5039965;28;20254;-49
2024/02/06 09:20:30;;;;;;;7.87;2.50;;;9.80;99.90;;;;;;5012318;28;20203;-54
2024/02/06 09:22:57;;;;;;;8.53;3.23;;;9.80;99.90;;;;;;5030456;28;20289;-47
2024/02/06 09:25:24;;;;;;;5.37;2.73;;;9.80;99.90;;;;;;5014468;28;20203;-49
2024/02/06 09:27:50;;;;;;;6.40;3.23;;;9.80;99.90;;;;;;5025851;28;20209;-51
2024/02/06 09:30:18;;;;;;;8.80;2.50;;;9.80;99.90;;;;;;5024506;28;20223;-51
2024/02/06 09:32:46;;;;;;;4.80;2.47;;;9.70;99.90;;;;;;5032041;28;20883;-52
2024/02/06 09:35:13;;;;;;;5.67;2.77;;;9.70;99.90;;;;;;5012297;28;20207;-53
2024/02/06 09:37:40;;;;;;;5.67;2.67;;;9.70;99.90;;;;;;5030290;28;20249;-51
2024/02/06 09:40:07;;;;;;;8.20;3.03;;;9.70;99.90;;;;;;5032535;28;20757;-49
2024/02/06 09:42:36;;;;;;;5.77;2.50;;;9.70;99.90;;;;;;5034847;28;20230;-52
2024/02/06 09:45:04;;;;;;;5.77;2.83;;;9.70;99.90;;;;;;5032444;28;20206;-50
2024/02/06 09:47:30;;;;;;;7.00;2.37;;;9.70;99.90;;;;;;5026738;28;20207;-51
2024/02/06 09:50:00;;;;;;;4.80;2.40;;;9.70;99.90;;;;;;5003191;28;21756;-52
2024/02/06 09:52:30;;;;;;;5.77;2.67;;;9.70;99.90;;;;;;5036698;28;20216;-53
2024/02/06 09:55:00;;;;;;;4.47;2.70;;;9.70;99.90;;;;;;5024906;28;20478;-55
2024/02/06 09:57:29;;;;;;;4.57;2.17;;;9.70;99.90;;;;;;5030243;28;20199;-49
2024/02/06 09:59:58;;;;;;;8.70;2.70;;;9.70;99.90;;;;;;5023587;28;20594;-48
2024/02/06 10:02:26;;;;;;;5.60;2.60;;;9.70;99.90;;;;;;5024988;28;20231;-53
2024/02/06 10:04:55;;;;;;;9.97;2.43;;;9.70;99.90;;;;;;5006222;28;21040;-52
2024/02/06 10:07:24;;;;;;;4.63;2.27;;;9.70;99.90;;;;;;5032191;28;20249;-50
2024/02/06 10:09:52;;;;;;;4.37;2.10;;;9.80;99.90;;;;;;5030905;28;20204;-50
2024/02/06 10:12:20;;;;;;;7.97;2.20;;;9.80;99.90;;;;;;5016825;28;20238;-54
2024/02/06 10:14:46;;;;;;;3.40;1.73;;;9.80;99.90;;;;;;5022896;28;20256;-50
2024/02/06 10:17:14;;;;;;;4.30;2.00;;;9.80;99.90;;;;;;5030743;28;20619;-53
2024/02/06 10:19:41;;;;;;;2.87;2.00;;;9.80;99.90;;;;;;5005894;28;20206;-51
2024/02/06 10:22:08;;;;;;;6.43;2.37;;;9.80;99.90;;;;;;5044548;28;20221;-49
2024/02/06 10:24:36;;;;;;;6.97;2.20;;;9.80;99.90;;;;;;5036140;28;20273;-54
2024/02/06 10:27:04;;;;;;;2.33;1.77;;;9.80;99.90;;;;;;5032142;28;20210;-50
2024/02/06 10:29:32;;;;;;;4.57;2.30;;;9.70;99.90;;;;;;5034106;28;20208;-57
2024/02/06 10:31:59;;;;;;;4.63;2.50;;;9.70;99.90;;;;;;5035835;28;20203;-55
2024/02/06 10:34:27;;;;;;;2.90;2.17;;;9.70;99.90;;;;;;5018508;28;20203;-50
2024/02/06 10:36:58;;;;;;;4.13;1.90;;;9.70;99.90;;;;;;5028090;28;20294;-51
2024/02/06 10:39:28;;;;;;;2.43;2.07;;;9.70;99.90;;;;;;5038223;28;20199;-54
2024/02/06 10:42:01;;;;;;;3.23;1.90;;;9.70;99.90;;;;;;5033394;28;20218;-51
2024/02/06 10:44:28;;;;;;;6.97;2.10;;;9.70;99.90;;;;;;5030994;28;20211;-51
2024/02/06 10:46:59;;;;;;;3.70;2.17;;;9.70;99.90;;;;;;5026855;28;20223;-55
2024/02/06 10:49:27;;;;;;;5.67;2.00;;;9.70;99.90;;;;;;5023494;28;20227;-53
2024/02/06 10:52:03;;;;;;;5.57;2.30;;;9.70;99.90;;;;;;5000385;28;20536;-53
2024/02/06 10:54:30;;;;;;;3.33;2.57;;;9.70;99.90;;;;;;5030057;28;20192;-51
2024/02/06 10:57:05;;;;;;;2.80;1.70;;;9.70;99.90;;;;;;5032511;28;20218;-51
2024/02/06 10:59:35;;;;;;;5.40;1.80;;;9.70;99.90;;;;;;5027758;28;20222;-52
2024/02/06 11:02:09;;;;;;;2.73;2.37;;;9.70;99.90;;;;;;5030559;28;20200;-51
2024/02/06 11:04:40;;;;;;;2.80;2.13;;;9.70;99.90;;;;;;5027517;28;20611;-52
2024/02/06 11:07:09;;;;;;;4.80;2.50;;;9.70;99.90;;;;;;5008737;28;20646;-55
2024/02/06 11:09:39;;;;;;;4.63;2.40;;;9.70;99.90;;;;;;5029197;28;20200;-53
2024/02/06 11:12:10;;;;;;;4.37;2.23;;;9.70;99.90;;;;;;5037596;28;20679;-53
2024/02/06 11:14:39;;;;;;;4.57;2.37;;;9.70;99.90;;;;;;5034327;28;20195;-54
2024/02/06 11:17:10;;;;;;;3.83;2.00;;;9.70;99.90;;;;;;5031637;28;20253;-52
2024/02/06 11:19:46;;;;;;;9.13;2.73;;;9.80;99.90;;;;;;5027114;28;20215;-52
2024/02/06 11:22:20;;;;;;;5.50;2.50;;;9.80;99.90;;;;;;5013211;28;20199;-54
2024/02/06 11:24:48;;;;;;;4.37;2.03;;;9.80;99.90;;;;;;5025589;28;20207;-52
2024/02/06 11:27:17;;;;;;;5.17;2.40;;;9.90;99.90;;;;;;5040062;28;20269;-54
2024/02/06 11:29:45;;;;;;;5.77;2.10;;;9.90;99.90;;;;;;5029750;28;20196;-51
2024/02/06 11:32:13;;;;;;;6.53;2.03;;;9.90;99.90;;;;;;5043950;28;20195;-50
2024/02/06 11:34:49;;;;;;;8.77;2.53;;;9.90;99.90;;;;;;5031318;28;21536;-52
2024/02/06 11:37:27;;;;;;;4.97;2.27;;;9.90;99.90;;;;;;5004399;28;20198;-53
2024/02/06 11:40:07;;;;;;;4.33;2.27;;;10.00;99.90;;;;;;5037673;28;20203;-52
2024/02/06 11:42:37;;;;;;;5.17;3.00;;;10.00;99.90;;;;;;5035347;28;20417;-51
2024/02/06 11:45:09;;;;;;;8.17;2.50;;;10.00;99.90;;;;;;5042664;28;20215;-52
2024/02/06 11:47:36;;;;;;;3.83;2.50;;;10.10;99.90;;;;;;5028069;28;20586;-49
2024/02/06 11:50:12;;;;;;;5.73;2.40;;;10.10;99.90;;;;;;5041303;28;20211;-51
2024/02/06 11:52:39;;;;;;;4.73;2.00;;;10.10;99.90;;;;;;5001810;28;20212;-53
2024/02/06 11:55:08;;;;;;;4.63;2.53;;;10.10;99.90;;;;;;5039477;28;20258;-53
2024/02/06 11:57:37;;;;;;;6.20;1.87;;;10.20;99.90;;;;;;5034530;28;20195;-51
2024/02/06 12:00:04;;;;;;;4.73;2.13;;;10.20;99.90;;;;;;5037989;28;20207;-52
2024/02/06 12:02:39;;;;;;;5.60;1.97;;;10.20;99.90;;;;;;5030124;28;20233;-53
2024/02/06 12:05:08;;;;;;;5.77;1.90;;;10.30;99.90;;;;;;5033038;28;20219;-51
2024/02/06 12:07:35;;;;;;;4.57;2.67;;;10.20;99.90;;;;;;5007153;28;20279;-54
2024/02/06 12:10:02;;;;;;;9.40;2.60;;;10.30;99.90;;;;;;5037611;28;20568;-49
2024/02/06 12:12:29;;;;;;;8.37;2.30;;;10.30;99.90;;;;;;5035201;28;20219;-52
2024/02/06 12:14:57;;;;;;;6.47;2.00;;;10.40;99.90;;;;;;5037643;28;20253;-51
2024/02/06 12:17:25;;;;;;;5.70;2.07;;;10.40;99.90;;;;;;5032084;28;20234;-51
2024/02/06 12:19:52;;;;;;;5.17;1.83;;;10.50;99.90;;;;;;5022931;28;20328;-57
2024/02/06 12:22:19;;;;;;;4.70;1.97;;;10.50;99.90;;;;;;5032787;28;20223;-50
2024/02/06 12:24:46;;;;;;;6.43;2.13;;;10.50;99.90;;;;;;5011295;28;20276;-55
2024/02/06 12:27:13;;;;;;;7.33;2.63;;;10.50;99.90;;;;;;5034096;28;20224;-51
2024/02/06 12:29:41;;;;;;;9.33;2.70;;;10.60;99.90;;;;;;5030256;28;20316;-51
2024/02/06 12:32:09;;;;;;;6.07;2.00;;;10.60;99.90;;;;;;5033251;28;20196;-49
2024/02/06 12:34:36;;;;;;;11.87;2.13;;;10.60;99.90;;;;;;5032830;28;20587;-49
2024/02/06 12:37:04;;;;;;;7.07;2.27;;;10.60;99.90;;;;;;5030874;28;20277;-50
2024/02/06 12:39:31;;;;;;;7.13;2.23;;;10.60;99.90;;;;;;5005286;28;20264;-52
2024/02/06 12:42:02;;;;;;;5.90;2.13;;;10.70;99.90;;;;;;5027133;28;20208;-48
2024/02/06 12:44:29;;;;;;;6.33;3.53;;;10.70;99.90;;;;;;5033924;28;20787;-48
2024/02/06 12:46:58;;;;;;;8.17;2.67;;;10.80;99.90;;;;;;5029687;28;21001;-49
2024/02/06 12:49:27;;;;;;;8.10;2.40;;;10.80;99.90;;;;;;5037534;28;20199;-51
2024/02/06 12:51:56;;;;;;;6.07;2.07;;;10.80;99.90;;;;;;5030506;28;20485;-50
2024/02/06 12:54:24;;;;;;;7.97;2.10;;;10.80;99.90;;;;;;5008063;28;20302;-51